Pagrindinis puslapis
METAR-TAF:

METAR-TAF

Oro uostai :

Chetwynd, Britų Kolumbija, Kanada

platuma: 55-42N, ilguma: 121-38W, Aukštis: 609 m

Dabartinis oras

Ataskaita buvo paskelbta 13 valandos ir 36 minutes, ne 00:00 UTC
Vėjas 3 kt iš Pietų/Pietvakarių
Temperatūra -2°C
Drėgmė 50%
Slėgis 1021 hPa
Matomumas: 56.3 km
Mažai debesys ne aukštis 4500 ft
Apsiniaukę ne aukštis 24000 ft

METAR: CYCQ 190000Z 21003KT 35SM FEW045 OVC240 M02/M11 A3016 RMK SC1CI8 SC TR LAST STFD OBS/NEXT 191400Z SLP269

Laikas: 06:36 (13:36 UTC)


TAF: trūkstamas

Orai ataskaitas ir orų prognozės (METAR, TAF).

turimą stotys yra geltonos ir raudonos taškus žemėlapyje.

Perkelti pele per norėdami pamatyti stoties vardą.

Tada spustelėkite, norėdami matyti oro stebėjimo ir prognozės.

Norėdami pakeisti žemėlapį: spustelėkite ant žalios mygtukų su juodo kryžiaus žemyn,; žalią mygtuką su brūkšneliu, jei norite nutolinti; arba žalių rodyklių gretimoms žemėlapius.


METAR-TAF: